createdAt,value
2023-06-27T00:02:06.714Z,19.54
2023-06-27T00:06:09.480Z,19.50
2023-06-27T00:10:13.166Z,19.42
2023-06-27T00:14:20.150Z,19.35
2023-06-27T00:18:24.429Z,19.31
2023-06-27T00:22:27.462Z,19.27
2023-06-27T00:26:30.956Z,19.18
2023-06-27T00:30:35.760Z,19.11
2023-06-27T00:34:38.464Z,19.04
2023-06-27T00:38:41.095Z,19.00
2023-06-27T00:42:43.757Z,18.91
2023-06-27T00:46:50.313Z,18.87
2023-06-27T00:50:57.582Z,18.85
2023-06-27T00:55:01.674Z,18.80
2023-06-27T00:59:04.830Z,18.76
2023-06-27T01:03:09.351Z,18.76
2023-06-27T01:07:23.452Z,18.70
2023-06-27T01:11:29.415Z,18.67
2023-06-27T01:15:32.500Z,18.57
2023-06-27T01:19:37.877Z,18.52
2023-06-27T01:23:51.532Z,18.47
2023-06-27T01:27:54.797Z,18.43
2023-06-27T01:32:06.146Z,18.37
2023-06-27T01:36:13.682Z,18.30
2023-06-27T01:40:21.740Z,18.22
2023-06-27T01:44:26.248Z,18.16
2023-06-27T01:48:29.690Z,18.10
2023-06-27T01:52:32.377Z,18.05
2023-06-27T01:56:36.498Z,18.00
2023-06-27T02:00:39.176Z,17.90
2023-06-27T02:04:41.814Z,17.84
2023-06-27T02:08:45.440Z,17.77
2023-06-27T02:12:49.464Z,17.72
2023-06-27T02:16:52.150Z,17.66
2023-06-27T02:20:54.816Z,17.61
2023-06-27T02:24:57.490Z,17.57
2023-06-27T02:29:01.526Z,17.53
2023-06-27T02:33:04.291Z,17.50
2023-06-27T02:37:07.003Z,17.47
2023-06-27T02:41:09.652Z,17.42
2023-06-27T02:45:13.900Z,17.36
2023-06-27T02:49:16.793Z,17.20
2023-06-27T02:53:19.520Z,17.15
2023-06-27T02:57:22.380Z,17.10
2023-06-27T03:01:26.755Z,17.04
2023-06-27T03:05:29.472Z,17.00
2023-06-27T03:09:32.641Z,16.97
2023-06-27T03:13:35.281Z,16.97
2023-06-27T03:17:41.207Z,16.97
2023-06-27T03:21:45.437Z,17.00
2023-06-27T03:25:48.143Z,16.94
2023-06-27T03:29:50.815Z,16.89
2023-06-27T03:33:56.102Z,16.83
2023-06-27T03:37:58.786Z,16.78
2023-06-27T03:42:01.582Z,16.80
2023-06-27T03:46:04.302Z,16.87
2023-06-27T03:50:08.965Z,16.93
2023-06-27T03:54:12.005Z,17.02
2023-06-27T03:58:14.978Z,17.10
2023-06-27T04:02:17.944Z,17.16
2023-06-27T04:06:22.030Z,17.09
2023-06-27T04:10:24.701Z,17.06
2023-06-27T04:14:28.986Z,17.15
2023-06-27T04:18:31.857Z,17.13
2023-06-27T04:22:35.869Z,17.13
2023-06-27T04:26:38.535Z,17.15
2023-06-27T04:30:41.228Z,17.11
2023-06-27T04:34:43.916Z,17.02
2023-06-27T04:38:49.557Z,17.02
2023-06-27T04:42:52.294Z,17.02
2023-06-27T04:46:55.382Z,16.98
2023-06-27T04:50:58.204Z,17.00
2023-06-27T04:55:02.974Z,17.00
2023-06-27T04:59:05.669Z,16.94
2023-06-27T05:03:08.355Z,16.95
2023-06-27T05:07:11.110Z,17.00
2023-06-27T05:11:15.108Z,16.95
2023-06-27T05:15:17.847Z,16.93
2023-06-27T05:19:20.529Z,16.97
2023-06-27T05:23:23.550Z,17.03
2023-06-27T05:27:27.568Z,17.13
2023-06-27T05:31:30.545Z,17.20
2023-06-27T05:35:33.455Z,17.16
2023-06-27T05:39:36.110Z,17.14
2023-06-27T05:43:40.122Z,17.17
2023-06-27T05:47:43.643Z,17.19
2023-06-27T05:51:46.972Z,17.20
2023-06-27T05:55:49.705Z,17.17
2023-06-27T05:59:53.775Z,17.23
2023-06-27T06:03:56.463Z,17.30
2023-06-27T06:07:59.147Z,17.44
2023-06-27T06:12:01.989Z,17.46
2023-06-27T06:16:06.605Z,17.42
2023-06-27T06:20:11.788Z,17.39
2023-06-27T06:24:15.963Z,17.32
2023-06-27T06:28:18.625Z,17.25
2023-06-27T06:32:22.655Z,17.43
2023-06-27T06:36:25.441Z,17.47
2023-06-27T06:40:30.312Z,17.48
2023-06-27T06:44:32.985Z,17.48
2023-06-27T06:48:37.933Z,17.57
2023-06-27T06:52:40.602Z,17.53
2023-06-27T06:56:43.329Z,17.55
2023-06-27T07:00:46.923Z,17.81
2023-06-27T07:04:51.085Z,17.93
2023-06-27T07:08:55.018Z,18.01
2023-06-27T07:12:57.827Z,18.02
2023-06-27T07:17:00.942Z,17.91
2023-06-27T07:21:05.228Z,18.21
2023-06-27T07:25:08.755Z,18.38
2023-06-27T07:29:11.854Z,18.58
2023-06-27T07:33:16.786Z,18.68
2023-06-27T07:37:22.949Z,18.45
2023-06-27T07:41:25.902Z,18.41
2023-06-27T07:45:30.528Z,18.33
2023-06-27T07:49:33.939Z,18.88
2023-06-27T07:53:37.923Z,19.01
2023-06-27T07:57:40.568Z,19.15
2023-06-27T08:01:43.300Z,19.05
2023-06-27T08:05:46.012Z,18.89
2023-06-27T08:09:50.260Z,18.82
2023-06-27T08:13:53.045Z,18.68
2023-06-27T08:17:55.775Z,18.67
2023-06-27T08:21:58.450Z,18.75
2023-06-27T08:26:02.875Z,18.74
2023-06-27T08:30:07.439Z,18.74
2023-06-27T08:34:10.293Z,18.80
2023-06-27T08:38:13.889Z,18.73
2023-06-27T08:42:17.936Z,18.66
2023-06-27T08:46:23.461Z,18.50
2023-06-27T08:50:30.205Z,18.57
2023-06-27T08:54:38.419Z,18.58
2023-06-27T08:58:47.050Z,18.55
2023-06-27T09:02:51.293Z,18.52
2023-06-27T09:06:54.275Z,18.66
2023-06-27T09:10:57.795Z,18.55
2023-06-27T09:15:01.967Z,18.51
2023-06-27T09:19:04.700Z,18.29
2023-06-27T09:23:07.568Z,18.28
2023-06-27T09:27:29.516Z,18.30
2023-06-27T09:31:34.627Z,18.58
2023-06-27T09:36:01.330Z,18.73
2023-06-27T09:40:19.689Z,18.68
2023-06-27T09:44:23.508Z,18.95
2023-06-27T09:48:30.130Z,18.93
2023-06-27T09:52:32.885Z,18.84
2023-06-27T09:56:36.798Z,18.96
2023-06-27T10:00:40.404Z,19.12
2023-06-27T10:04:44.778Z,19.26
2023-06-27T10:08:48.031Z,19.69
2023-06-27T10:12:51.935Z,19.91
2023-06-27T10:16:56.026Z,19.86
2023-06-27T10:21:00.150Z,19.93
2023-06-27T10:25:06.810Z,20.09
2023-06-27T10:29:16.279Z,21.06
2023-06-27T10:33:28.890Z,21.33
2023-06-27T10:37:33.859Z,21.65
2023-06-27T10:41:39.852Z,21.81
2023-06-27T10:45:42.808Z,22.05
2023-06-27T10:49:48.388Z,21.53
2023-06-27T10:54:17.856Z,21.79
2023-06-27T10:58:28.556Z,22.08
2023-06-27T11:02:35.147Z,22.14
2023-06-27T11:06:41.824Z,21.88
2023-06-27T11:11:04.714Z,22.46
2023-06-27T11:15:08.676Z,22.13
2023-06-27T11:19:14.111Z,21.93
2023-06-27T11:23:23.285Z,22.36
2023-06-27T11:27:32.841Z,22.31
2023-06-27T11:31:35.890Z,22.29
2023-06-27T11:35:41.061Z,22.44
2023-06-27T11:39:53.998Z,22.82
2023-06-27T11:43:58.828Z,23.02
2023-06-27T11:48:03.911Z,22.55
2023-06-27T11:52:07.406Z,21.99
2023-06-27T11:56:21.210Z,21.19
2023-06-27T12:00:28.031Z,21.20
2023-06-27T12:04:30.824Z,21.20
2023-06-27T12:08:34.777Z,21.18
2023-06-27T12:12:40.884Z,21.63
2023-06-27T12:16:45.819Z,21.64
2023-06-27T12:20:48.585Z,21.67
2023-06-27T12:24:51.834Z,21.64
2023-06-27T12:28:58.766Z,21.40
2023-06-27T12:33:03.167Z,21.37
2023-06-27T12:37:06.674Z,20.90
2023-06-27T12:41:09.443Z,21.20
2023-06-27T12:45:13.798Z,21.32
2023-06-27T12:49:18.832Z,21.36
2023-06-27T12:53:22.096Z,21.65
2023-06-27T12:57:24.779Z,21.67
2023-06-27T13:01:28.866Z,21.98
2023-06-27T13:05:33.023Z,22.25
2023-06-27T13:09:35.655Z,21.68
2023-06-27T13:13:38.311Z,21.70
2023-06-27T13:17:42.810Z,21.90
2023-06-27T13:21:46.842Z,22.21
2023-06-27T13:25:49.508Z,22.25
2023-06-27T13:29:52.180Z,22.29
2023-06-27T13:33:55.008Z,22.09
2023-06-27T13:38:02.110Z,21.87
2023-06-27T13:42:05.399Z,21.74
2023-06-27T13:46:08.151Z,21.76
2023-06-27T13:50:11.290Z,22.13
2023-06-27T13:54:15.308Z,22.38
2023-06-27T13:58:19.815Z,22.29
2023-06-27T14:02:23.672Z,22.34
2023-06-27T14:06:27.039Z,22.23
2023-06-27T14:10:31.764Z,22.22
2023-06-27T14:14:34.470Z,22.08
2023-06-27T14:18:37.794Z,22.14
2023-06-27T14:22:40.472Z,22.46
2023-06-27T14:26:44.487Z,22.55
2023-06-27T14:30:47.160Z,22.44
2023-06-27T14:34:49.829Z,22.47
2023-06-27T14:38:52.604Z,22.46
2023-06-27T14:42:56.598Z,22.27
2023-06-27T14:46:59.284Z,22.31
2023-06-27T14:51:01.968Z,22.17
2023-06-27T14:55:04.870Z,22.04
2023-06-27T14:59:09.019Z,22.15
2023-06-27T15:03:11.818Z,22.19
2023-06-27T15:07:14.639Z,22.35
2023-06-27T15:11:17.606Z,21.98
2023-06-27T15:15:21.666Z,21.81
2023-06-27T15:19:24.390Z,21.82
2023-06-27T15:23:37.898Z,21.68
2023-06-27T15:27:42.111Z,21.76
2023-06-27T15:31:46.234Z,21.59
2023-06-27T15:35:48.944Z,21.59
2023-06-27T15:39:54.767Z,21.60
2023-06-27T15:43:57.665Z,21.57
2023-06-27T15:48:01.908Z,21.43
2023-06-27T15:52:04.889Z,21.73
2023-06-27T15:56:07.671Z,21.81
2023-06-27T16:00:11.285Z,22.08
2023-06-27T16:04:15.763Z,22.38
2023-06-27T16:08:18.528Z,22.28
2023-06-27T16:12:21.282Z,22.13
2023-06-27T16:16:24.464Z,22.11
2023-06-27T16:20:28.485Z,22.18
2023-06-27T16:24:31.118Z,22.22
2023-06-27T16:28:33.784Z,22.22
2023-06-27T16:32:37.746Z,22.67
2023-06-27T16:36:41.833Z,22.87
2023-06-27T16:40:44.706Z,22.96
2023-06-27T16:44:47.434Z,22.69
2023-06-27T16:48:50.448Z,22.84
2023-06-27T16:52:54.551Z,22.37
2023-06-27T16:56:57.232Z,22.09
2023-06-27T17:00:59.870Z,21.76
2023-06-27T17:05:02.712Z,21.75
2023-06-27T17:09:07.462Z,21.66
2023-06-27T17:13:10.179Z,21.69
2023-06-27T17:17:12.856Z,21.76
2023-06-27T17:21:15.624Z,21.73
2023-06-27T17:25:19.632Z,21.59
2023-06-27T17:29:22.320Z,21.46
2023-06-27T17:33:26.775Z,21.41
2023-06-27T17:37:29.695Z,21.45
2023-06-27T17:41:33.916Z,21.31
2023-06-27T17:45:36.553Z,21.19
2023-06-27T17:49:39.231Z,21.23
2023-06-27T17:53:41.885Z,21.22
2023-06-27T17:57:45.963Z,21.22
2023-06-27T18:01:48.737Z,21.25
2023-06-27T18:05:51.431Z,21.26
2023-06-27T18:09:54.097Z,21.16
2023-06-27T18:13:58.183Z,21.14
2023-06-27T18:18:00.880Z,20.98
2023-06-27T18:22:04.217Z,20.97
2023-06-27T18:26:07.427Z,20.85
2023-06-27T18:30:11.977Z,20.80
2023-06-27T18:34:14.737Z,20.76
2023-06-27T18:38:17.468Z,20.76
2023-06-27T18:42:20.403Z,20.74
2023-06-27T18:46:24.493Z,20.66
2023-06-27T18:50:27.156Z,20.62
2023-06-27T18:54:29.916Z,20.56
2023-06-27T18:58:32.609Z,20.47
2023-06-27T19:02:37.562Z,20.40
2023-06-27T19:06:40.504Z,20.28
2023-06-27T19:10:44.166Z,20.15
2023-06-27T19:14:47.214Z,20.03
2023-06-27T19:18:51.252Z,19.95
2023-06-27T19:22:54.651Z,19.88
2023-06-27T19:26:57.536Z,19.79
2023-06-27T19:31:00.218Z,19.71
2023-06-27T19:35:04.335Z,19.66
2023-06-27T19:39:07.333Z,19.62
2023-06-27T19:43:10.080Z,19.55
2023-06-27T19:47:13.562Z,19.52
2023-06-27T19:51:17.786Z,19.51
2023-06-27T19:55:20.647Z,19.47
2023-06-27T19:59:23.309Z,19.43
2023-06-27T20:03:27.653Z,19.39
2023-06-27T20:07:32.667Z,19.37
2023-06-27T20:11:35.401Z,19.34
2023-06-27T20:15:38.265Z,19.28
2023-06-27T20:19:41.470Z,19.26
2023-06-27T20:23:46.126Z,19.25
2023-06-27T20:27:49.290Z,19.19
2023-06-27T20:31:52.045Z,19.06
2023-06-27T20:35:54.720Z,18.98
2023-06-27T20:39:58.884Z,18.89
2023-06-27T20:44:01.664Z,18.89
2023-06-27T20:48:04.726Z,18.82
2023-06-27T20:52:07.953Z,18.71
2023-06-27T20:56:11.998Z,18.65
2023-06-27T21:00:15.467Z,18.59
2023-06-27T21:04:18.316Z,18.54
2023-06-27T21:08:21.011Z,18.55
2023-06-27T21:12:25.060Z,18.53
2023-06-27T21:16:27.819Z,18.46
2023-06-27T21:20:30.497Z,18.38
2023-06-27T21:24:33.127Z,18.31
2023-06-27T21:28:37.168Z,18.26
2023-06-27T21:32:39.903Z,18.18
2023-06-27T21:36:42.573Z,18.11
2023-06-27T21:40:45.279Z,18.02
2023-06-27T21:44:49.670Z,17.97
2023-06-27T21:48:53.263Z,17.89
2023-06-27T21:52:56.593Z,17.78
2023-06-27T21:56:59.618Z,17.66
2023-06-27T22:01:03.661Z,17.63
2023-06-27T22:05:07.180Z,17.64
2023-06-27T22:09:10.105Z,17.64
2023-06-27T22:13:13.336Z,17.55
2023-06-27T22:17:17.700Z,17.50
2023-06-27T22:21:21.381Z,17.49
2023-06-27T22:25:24.018Z,17.49
2023-06-27T22:29:26.681Z,17.42
2023-06-27T22:33:30.681Z,17.30
2023-06-27T22:37:33.388Z,17.27
2023-06-27T22:41:36.034Z,17.29
2023-06-27T22:45:39.695Z,17.16
2023-06-27T22:49:43.867Z,17.12
2023-06-27T22:53:48.072Z,17.06
2023-06-27T22:57:50.767Z,16.94
2023-06-27T23:01:53.452Z,16.92
2023-06-27T23:05:57.493Z,16.83
2023-06-27T23:10:00.360Z,16.72
2023-06-27T23:14:03.085Z,16.60
2023-06-27T23:18:07.008Z,16.17
2023-06-27T23:22:12.135Z,15.85
2023-06-27T23:26:17.875Z,15.65
2023-06-27T23:30:23.281Z,15.56
2023-06-27T23:34:26.393Z,15.60
2023-06-27T23:38:30.405Z,15.58
2023-06-27T23:42:33.041Z,15.50
2023-06-27T23:46:35.891Z,15.48
2023-06-27T23:50:38.650Z,15.38
2023-06-27T23:54:42.691Z,15.25
2023-06-27T23:58:45.337Z,15.16
